createdAt,value
2022-10-10T00:01:16.335Z,2.07
2022-10-10T00:03:43.612Z,1.57
2022-10-10T00:06:11.578Z,1.50
2022-10-10T00:08:38.509Z,1.60
2022-10-10T00:11:05.641Z,2.03
2022-10-10T00:13:32.489Z,2.40
2022-10-10T00:15:59.429Z,1.90
2022-10-10T00:18:26.305Z,2.37
2022-10-10T00:20:52.978Z,1.63
2022-10-10T00:23:20.675Z,2.03
2022-10-10T00:25:47.727Z,1.70
2022-10-10T00:28:15.001Z,1.83
2022-10-10T00:30:41.949Z,1.90
2022-10-10T00:33:08.815Z,1.63
2022-10-10T00:35:35.543Z,1.83
2022-10-10T00:38:02.527Z,1.63
2022-10-10T00:40:29.210Z,1.60
2022-10-10T00:42:55.978Z,1.80
2022-10-10T00:45:40.875Z,2.00
2022-10-10T00:48:16.595Z,1.97
2022-10-10T00:51:02.806Z,2.23
2022-10-10T00:53:44.394Z,1.80
2022-10-10T00:56:13.919Z,1.67
2022-10-10T00:58:44.606Z,2.67
2022-10-10T01:01:11.459Z,3.90
2022-10-10T01:03:38.339Z,1.80
2022-10-10T01:06:05.571Z,2.10
2022-10-10T01:08:32.691Z,2.07
2022-10-10T01:11:14.918Z,1.80
2022-10-10T01:13:58.143Z,1.97
2022-10-10T01:16:47.932Z,1.90
2022-10-10T01:19:49.342Z,2.17
2022-10-10T01:22:34.484Z,1.77
2022-10-10T01:25:01.063Z,2.03
2022-10-10T01:27:34.707Z,1.90
2022-10-10T01:30:04.716Z,2.23
2022-10-10T01:32:38.719Z,1.80
2022-10-10T01:35:21.327Z,1.43
2022-10-10T01:37:59.751Z,1.60
2022-10-10T01:40:40.567Z,1.83
2022-10-10T01:43:08.929Z,1.90
2022-10-10T01:45:35.734Z,1.70
2022-10-10T01:48:04.922Z,1.83
2022-10-10T01:50:39.427Z,2.20
2022-10-10T01:53:16.388Z,2.03
2022-10-10T01:55:59.381Z,1.80
2022-10-10T01:58:38.019Z,2.97
2022-10-10T02:01:13.857Z,1.80
2022-10-10T02:03:45.570Z,1.60
2022-10-10T02:06:30.965Z,1.80
2022-10-10T02:09:04.506Z,2.50
2022-10-10T02:11:37.745Z,2.50
2022-10-10T02:14:34.399Z,2.67
2022-10-10T02:17:03.050Z,2.90
2022-10-10T02:19:30.693Z,2.07
2022-10-10T02:21:58.369Z,2.37
2022-10-10T02:24:25.399Z,2.40
2022-10-10T02:27:34.895Z,2.93
2022-10-10T02:30:03.795Z,2.17
2022-10-10T02:32:38.570Z,2.13
2022-10-10T02:35:19.150Z,2.33
2022-10-10T02:37:48.306Z,2.13
2022-10-10T02:40:20.245Z,2.00
2022-10-10T02:42:49.316Z,2.40
2022-10-10T02:45:17.800Z,2.60
2022-10-10T02:47:45.513Z,2.40
2022-10-10T02:50:12.984Z,2.20
2022-10-10T02:52:39.826Z,1.63
2022-10-10T02:55:06.810Z,2.40
2022-10-10T02:57:33.495Z,2.27
2022-10-10T03:00:01.139Z,2.20
2022-10-10T03:02:28.208Z,2.80
2022-10-10T03:04:55.023Z,2.70
2022-10-10T03:07:21.655Z,2.40
2022-10-10T03:09:48.382Z,1.87
2022-10-10T03:12:15.204Z,2.27
2022-10-10T03:14:41.849Z,2.67
2022-10-10T03:17:08.488Z,2.00
2022-10-10T03:19:35.106Z,2.60
2022-10-10T03:22:01.856Z,1.93
2022-10-10T03:24:28.796Z,2.67
2022-10-10T03:26:55.409Z,2.37
2022-10-10T03:29:22.081Z,1.90
2022-10-10T03:31:48.675Z,2.40
2022-10-10T03:34:15.301Z,2.60
2022-10-10T03:36:41.895Z,2.33
2022-10-10T03:39:11.684Z,2.70
2022-10-10T03:41:38.323Z,3.10
2022-10-10T03:44:04.923Z,3.07
2022-10-10T03:46:31.507Z,2.60
2022-10-10T03:48:58.111Z,2.60
2022-10-10T03:51:24.781Z,2.50
2022-10-10T03:53:51.404Z,2.90
2022-10-10T03:56:18.006Z,2.10
2022-10-10T03:58:44.913Z,3.00
2022-10-10T04:01:11.649Z,2.20
2022-10-10T04:03:38.281Z,3.10
2022-10-10T04:06:05.522Z,3.17
2022-10-10T04:08:32.443Z,3.10
2022-10-10T04:10:59.119Z,2.53
2022-10-10T04:13:25.891Z,2.87
2022-10-10T04:15:54.114Z,2.07
2022-10-10T04:18:21.466Z,2.80
2022-10-10T04:20:48.124Z,2.90
2022-10-10T04:23:15.104Z,2.90
2022-10-10T04:25:41.924Z,2.90
2022-10-10T04:28:11.888Z,3.13
2022-10-10T04:30:38.619Z,2.93
2022-10-10T04:33:05.209Z,3.07
2022-10-10T04:35:31.809Z,3.53
2022-10-10T04:37:58.684Z,2.80
2022-10-10T04:40:26.842Z,2.80
2022-10-10T04:42:54.773Z,3.27
2022-10-10T04:45:21.452Z,3.13
2022-10-10T04:47:48.040Z,3.00
2022-10-10T04:50:14.627Z,3.10
2022-10-10T04:52:41.218Z,3.00
2022-10-10T04:55:08.175Z,3.57
2022-10-10T04:57:34.801Z,2.40
2022-10-10T05:00:01.452Z,2.57
2022-10-10T05:02:28.060Z,3.17
2022-10-10T05:04:54.685Z,2.80
2022-10-10T05:07:21.362Z,3.10
2022-10-10T05:09:47.962Z,2.83
2022-10-10T05:12:14.620Z,3.27
2022-10-10T05:14:45.867Z,2.60
2022-10-10T05:17:14.706Z,3.03
2022-10-10T05:19:41.340Z,3.33
2022-10-10T05:22:07.985Z,4.00
2022-10-10T05:24:34.770Z,2.43
2022-10-10T05:27:01.371Z,2.90
2022-10-10T05:29:27.996Z,2.77
2022-10-10T05:31:54.608Z,3.00
2022-10-10T05:34:21.259Z,2.80
2022-10-10T05:36:47.897Z,3.10
2022-10-10T05:39:14.573Z,3.43
2022-10-10T05:41:41.289Z,3.23
2022-10-10T05:44:08.020Z,3.47
2022-10-10T05:46:34.658Z,3.30
2022-10-10T05:49:01.286Z,2.63
2022-10-10T05:51:27.914Z,4.23
2022-10-10T05:53:55.011Z,3.37
2022-10-10T05:56:21.739Z,2.93
2022-10-10T05:58:49.317Z,3.13
2022-10-10T06:01:15.958Z,3.23
2022-10-10T06:03:42.592Z,3.27
2022-10-10T06:06:09.237Z,3.63
2022-10-10T06:08:35.966Z,4.20
2022-10-10T06:11:11.134Z,3.17
2022-10-10T06:13:38.747Z,3.47
2022-10-10T06:16:05.491Z,4.10
2022-10-10T06:18:32.153Z,5.10
2022-10-10T06:21:04.100Z,3.97
2022-10-10T06:23:30.834Z,3.80
2022-10-10T06:25:57.469Z,3.43
2022-10-10T06:28:24.187Z,3.43
2022-10-10T06:30:51.487Z,4.93
2022-10-10T06:33:19.317Z,3.63
2022-10-10T06:35:48.749Z,6.03
2022-10-10T06:38:16.768Z,3.10
2022-10-10T06:40:44.463Z,7.10
2022-10-10T06:43:13.104Z,4.93
2022-10-10T06:45:47.341Z,4.00
2022-10-10T06:48:15.095Z,3.30
2022-10-10T06:50:42.091Z,4.67
2022-10-10T06:53:08.739Z,3.70
2022-10-10T06:55:35.377Z,4.30
2022-10-10T06:58:02.040Z,3.00
2022-10-10T07:00:28.839Z,3.93
2022-10-10T07:02:55.455Z,4.27
2022-10-10T07:05:22.076Z,4.00
2022-10-10T07:07:48.673Z,3.20
2022-10-10T07:10:15.988Z,3.50
2022-10-10T07:12:52.398Z,3.10
2022-10-10T07:15:19.082Z,3.73
2022-10-10T07:17:49.235Z,3.33
2022-10-10T07:20:18.539Z,3.27
2022-10-10T07:22:45.140Z,3.07
2022-10-10T07:25:11.779Z,3.20
2022-10-10T07:27:38.347Z,3.10
2022-10-10T07:30:05.858Z,2.90
2022-10-10T07:32:32.471Z,3.77
2022-10-10T07:34:59.122Z,4.03
2022-10-10T07:37:25.738Z,4.30
2022-10-10T07:39:53.232Z,4.07
2022-10-10T07:42:20.278Z,4.30
2022-10-10T07:44:46.921Z,4.37
2022-10-10T07:47:13.580Z,3.90
2022-10-10T07:49:40.182Z,4.20
2022-10-10T07:52:06.799Z,4.03
2022-10-10T07:54:33.490Z,3.70
2022-10-10T07:57:00.125Z,3.97
2022-10-10T07:59:27.058Z,3.00
2022-10-10T08:01:53.877Z,3.40
2022-10-10T08:04:20.937Z,2.83
2022-10-10T08:06:48.629Z,2.90
2022-10-10T08:09:15.284Z,5.60
2022-10-10T08:11:41.914Z,4.40
2022-10-10T08:14:08.766Z,5.37
2022-10-10T08:16:35.868Z,4.50
2022-10-10T08:19:02.601Z,8.07
2022-10-10T08:21:29.278Z,4.80
2022-10-10T08:23:56.148Z,3.07
2022-10-10T08:26:22.859Z,2.97
2022-10-10T08:28:50.078Z,2.70
2022-10-10T08:31:20.031Z,4.70
2022-10-10T08:33:48.657Z,3.30
2022-10-10T08:36:22.041Z,3.37
2022-10-10T08:38:49.238Z,2.87
2022-10-10T08:41:32.808Z,3.50
2022-10-10T08:44:05.691Z,2.90
2022-10-10T08:46:45.001Z,2.77
2022-10-10T08:49:42.406Z,3.00
2022-10-10T08:52:30.645Z,3.47
2022-10-10T08:54:58.879Z,3.27
2022-10-10T08:58:00.665Z,3.10
2022-10-10T09:00:33.054Z,4.43
2022-10-10T09:03:01.398Z,3.37
2022-10-10T09:05:40.037Z,2.93
2022-10-10T09:08:26.653Z,2.83
2022-10-10T09:10:59.239Z,3.80
2022-10-10T09:14:01.638Z,2.80
2022-10-10T09:16:42.638Z,3.43
2022-10-10T09:19:44.247Z,4.47
2022-10-10T09:22:19.292Z,3.10
2022-10-10T09:24:52.592Z,3.50
2022-10-10T09:27:38.654Z,3.70
2022-10-10T09:30:17.413Z,2.87
2022-10-10T09:32:52.575Z,2.87
2022-10-10T09:35:28.433Z,3.00
2022-10-10T09:38:13.239Z,2.57
2022-10-10T09:40:50.889Z,2.60
2022-10-10T09:43:19.179Z,3.33
2022-10-10T09:45:53.711Z,3.33
2022-10-10T09:48:26.389Z,3.07
2022-10-10T09:50:53.007Z,2.43
2022-10-10T09:53:19.625Z,2.93
2022-10-10T09:55:47.885Z,2.70
2022-10-10T09:58:25.768Z,3.27
2022-10-10T10:00:53.756Z,2.87
2022-10-10T10:03:22.664Z,3.63
2022-10-10T10:06:00.129Z,2.70
2022-10-10T10:08:32.339Z,2.77
2022-10-10T10:11:00.183Z,2.63
2022-10-10T10:13:35.839Z,2.90
2022-10-10T10:16:04.749Z,2.23
2022-10-10T10:18:39.266Z,2.33
2022-10-10T10:21:13.556Z,2.80
2022-10-10T10:23:51.516Z,2.90
2022-10-10T10:26:29.128Z,2.50
2022-10-10T10:29:00.181Z,3.53
2022-10-10T10:32:07.185Z,2.60
2022-10-10T10:35:11.499Z,2.90
2022-10-10T10:37:53.437Z,2.73
2022-10-10T10:40:38.896Z,3.10
2022-10-10T10:43:33.688Z,2.73
2022-10-10T10:46:37.989Z,2.97
2022-10-10T10:49:25.413Z,3.10
2022-10-10T10:52:24.984Z,1.97
2022-10-10T10:55:13.416Z,2.70
2022-10-10T10:58:48.816Z,3.70
2022-10-10T11:01:23.457Z,2.87
2022-10-10T11:05:23.793Z,2.77
2022-10-10T11:07:23.661Z,2.80
2022-10-10T11:10:21.448Z,2.30
2022-10-10T11:12:58.162Z,2.40
2022-10-10T11:16:05.529Z,3.03
2022-10-10T11:19:11.074Z,3.83
2022-10-10T11:21:44.462Z,2.97
2022-10-10T11:24:35.851Z,2.30
2022-10-10T11:27:09.308Z,2.50
2022-10-10T11:30:25.299Z,2.47
2022-10-10T11:32:52.109Z,3.07
2022-10-10T11:35:34.652Z,2.97
2022-10-10T11:38:14.287Z,2.60
2022-10-10T11:40:44.946Z,2.37
2022-10-10T11:43:19.527Z,2.30
2022-10-10T11:46:01.938Z,1.80
2022-10-10T11:48:52.515Z,2.90
2022-10-10T11:51:37.750Z,2.50
2022-10-10T11:54:13.098Z,2.17
2022-10-10T11:56:43.746Z,2.40
2022-10-10T11:59:36.558Z,2.30
2022-10-10T12:02:37.310Z,2.57
2022-10-10T12:05:08.144Z,2.77
2022-10-10T12:07:56.719Z,2.70
2022-10-10T12:10:23.303Z,2.33
2022-10-10T12:12:54.385Z,1.90
2022-10-10T12:15:39.936Z,2.20
2022-10-10T12:18:44.031Z,2.33
2022-10-10T12:21:17.396Z,3.20
2022-10-10T12:23:48.931Z,2.57
2022-10-10T12:26:22.274Z,2.50
2022-10-10T12:29:02.949Z,3.77
2022-10-10T12:31:40.012Z,2.93
2022-10-10T12:34:14.432Z,3.20
2022-10-10T12:36:40.968Z,2.93
2022-10-10T12:39:10.913Z,2.10
2022-10-10T12:41:56.341Z,2.70
2022-10-10T12:44:35.072Z,2.43
2022-10-10T12:47:16.770Z,2.97
2022-10-10T12:49:54.153Z,2.70
2022-10-10T12:52:28.717Z,3.30
2022-10-10T12:55:06.885Z,3.13
2022-10-10T12:57:40.707Z,3.60
2022-10-10T13:00:17.916Z,2.77
2022-10-10T13:02:47.935Z,3.23
2022-10-10T13:05:18.332Z,3.03
2022-10-10T13:07:47.457Z,2.80
2022-10-10T13:10:28.905Z,3.20
2022-10-10T13:13:21.897Z,3.27
2022-10-10T13:15:57.599Z,3.20
2022-10-10T13:18:34.088Z,2.63
2022-10-10T13:21:02.776Z,2.73
2022-10-10T13:23:29.844Z,2.70
2022-10-10T13:25:56.544Z,2.60
2022-10-10T13:28:23.475Z,3.00
2022-10-10T13:30:51.263Z,2.93
2022-10-10T13:33:21.487Z,3.17
2022-10-10T13:35:50.133Z,2.23
2022-10-10T13:38:20.280Z,2.30
2022-10-10T13:40:47.175Z,2.83
2022-10-10T13:43:18.600Z,2.73
2022-10-10T13:45:59.766Z,2.50
2022-10-10T13:48:35.213Z,3.43
2022-10-10T13:51:01.848Z,2.53
2022-10-10T13:53:31.580Z,2.67
2022-10-10T13:56:23.600Z,2.70
2022-10-10T13:59:01.340Z,3.00
2022-10-10T14:01:39.295Z,3.30
2022-10-10T14:04:22.199Z,2.40
2022-10-10T14:07:00.305Z,3.27
2022-10-10T14:09:26.863Z,3.10
2022-10-10T14:11:55.371Z,2.80
2022-10-10T14:14:26.198Z,2.30
2022-10-10T14:17:04.110Z,4.10
2022-10-10T14:19:32.018Z,2.80
2022-10-10T14:21:58.683Z,3.17
2022-10-10T14:24:25.635Z,2.80
2022-10-10T14:26:52.403Z,2.83
2022-10-10T14:29:19.873Z,3.30
2022-10-10T14:31:47.077Z,2.50
2022-10-10T14:34:14.978Z,3.50
2022-10-10T14:36:47.654Z,3.07
2022-10-10T14:39:16.584Z,2.60
2022-10-10T14:41:43.757Z,3.20
2022-10-10T14:44:11.178Z,2.63
2022-10-10T14:46:38.598Z,2.50
2022-10-10T14:49:09.679Z,3.10
2022-10-10T14:51:38.987Z,2.87
2022-10-10T14:54:10.047Z,3.27
2022-10-10T14:57:07.280Z,2.77
2022-10-10T14:59:48.342Z,2.90
2022-10-10T15:02:17.241Z,3.03
2022-10-10T15:04:43.826Z,2.77
2022-10-10T15:07:14.033Z,2.27
2022-10-10T15:09:56.518Z,2.77
2022-10-10T15:12:28.904Z,3.03
2022-10-10T15:14:55.580Z,2.33
2022-10-10T15:17:22.608Z,2.90
2022-10-10T15:19:49.241Z,2.70
2022-10-10T15:22:15.940Z,3.07
2022-10-10T15:24:43.115Z,4.50
2022-10-10T15:27:09.761Z,2.70
2022-10-10T15:29:38.749Z,2.87
2022-10-10T15:32:05.859Z,2.70
2022-10-10T15:34:32.619Z,4.03
2022-10-10T15:36:59.220Z,2.23
2022-10-10T15:39:25.876Z,3.10
2022-10-10T15:41:52.483Z,2.80
2022-10-10T15:44:19.617Z,3.43
2022-10-10T15:46:46.673Z,2.40
2022-10-10T15:49:14.072Z,3.17
2022-10-10T15:51:47.385Z,2.63
2022-10-10T15:54:15.120Z,2.67
2022-10-10T15:56:42.555Z,4.10
2022-10-10T15:59:10.829Z,3.10
2022-10-10T16:01:37.450Z,2.90
2022-10-10T16:04:05.118Z,3.30
2022-10-10T16:06:31.799Z,2.53
2022-10-10T16:09:16.750Z,3.50
2022-10-10T16:11:45.293Z,3.50
2022-10-10T16:14:11.923Z,2.93
2022-10-10T16:16:39.156Z,3.53
2022-10-10T16:19:06.245Z,3.80
2022-10-10T16:21:33.455Z,2.60
2022-10-10T16:24:00.508Z,3.57
2022-10-10T16:26:32.180Z,3.87
2022-10-10T16:29:00.044Z,3.73
2022-10-10T16:31:27.497Z,3.67
2022-10-10T16:33:56.359Z,3.60
2022-10-10T16:36:25.742Z,3.70
2022-10-10T16:38:57.754Z,3.70
2022-10-10T16:41:46.502Z,3.80
2022-10-10T16:44:14.396Z,4.03
2022-10-10T16:46:40.981Z,4.80
2022-10-10T16:49:07.607Z,3.90
2022-10-10T16:51:34.229Z,4.50
2022-10-10T16:54:01.765Z,4.20
2022-10-10T16:56:29.710Z,4.50
2022-10-10T16:58:58.582Z,4.80
2022-10-10T17:01:25.576Z,5.00
2022-10-10T17:03:52.346Z,7.30
2022-10-10T17:06:21.917Z,6.17
2022-10-10T17:08:50.342Z,5.27
2022-10-10T17:11:18.638Z,4.63
2022-10-10T17:13:45.231Z,5.47
2022-10-10T17:19:03.880Z,5.80
2022-10-10T17:21:31.518Z,5.43
2022-10-10T17:23:58.401Z,5.77
2022-10-10T17:26:26.265Z,5.53
2022-10-10T17:28:58.008Z,6.33
2022-10-10T17:31:25.557Z,5.47
2022-10-10T17:33:54.555Z,4.80
2022-10-10T17:36:23.959Z,3.57
2022-10-10T17:38:50.634Z,2.77
2022-10-10T17:41:18.393Z,1.83
2022-10-10T17:43:45.257Z,1.57
2022-10-10T17:46:40.853Z,1.53
2022-10-10T17:49:10.233Z,1.90
2022-10-10T17:51:39.068Z,2.03
2022-10-10T17:54:06.879Z,2.00
2022-10-10T17:56:34.156Z,2.17
2022-10-10T17:59:01.815Z,1.47
2022-10-10T18:01:30.619Z,1.60
2022-10-10T18:03:57.914Z,1.57
2022-10-10T18:06:24.966Z,1.60
2022-10-10T18:08:53.646Z,1.77
2022-10-10T18:11:25.500Z,2.00
2022-10-10T18:13:52.645Z,2.50
2022-10-10T18:16:23.318Z,1.67
2022-10-10T18:18:51.947Z,1.93
2022-10-10T18:21:23.682Z,1.63
2022-10-10T18:23:51.091Z,2.03
2022-10-10T18:26:20.148Z,1.63
2022-10-10T18:28:47.684Z,1.40
2022-10-10T18:31:23.584Z,2.23
2022-10-10T18:33:50.502Z,2.40
2022-10-10T18:36:19.853Z,2.30
2022-10-10T18:38:46.587Z,1.67
2022-10-10T18:41:21.665Z,2.10
2022-10-10T18:43:49.254Z,2.07
2022-10-10T18:46:18.879Z,1.73
2022-10-10T18:48:49.051Z,2.70
2022-10-10T18:51:24.054Z,1.97
2022-10-10T18:53:54.798Z,2.10
2022-10-10T18:56:24.594Z,2.00
2022-10-10T18:58:54.788Z,2.70
2022-10-10T19:01:24.975Z,3.70
2022-10-10T19:03:52.849Z,2.40
2022-10-10T19:06:20.556Z,1.70
2022-10-10T19:08:47.282Z,2.33
2022-10-10T19:11:28.902Z,1.90
2022-10-10T19:13:58.630Z,3.00
2022-10-10T19:16:25.386Z,3.30
2022-10-10T19:18:56.271Z,2.40
2022-10-10T19:21:24.818Z,2.40
2022-10-10T19:23:51.514Z,3.00
2022-10-10T19:26:18.133Z,3.20
2022-10-10T19:28:45.085Z,2.70
2022-10-10T19:31:15.094Z,2.57
2022-10-10T19:33:42.665Z,6.43
2022-10-10T19:36:11.122Z,3.30
2022-10-10T19:38:39.894Z,3.60
2022-10-10T19:41:09.233Z,3.00
2022-10-10T19:43:36.263Z,3.20
2022-10-10T19:46:07.903Z,3.47
2022-10-10T19:48:36.809Z,3.80
2022-10-10T19:51:05.934Z,3.37
2022-10-10T19:53:33.627Z,3.80
2022-10-10T19:56:06.728Z,4.43
2022-10-10T19:58:34.211Z,3.23
2022-10-10T20:01:05.339Z,4.00
2022-10-10T20:03:32.071Z,3.10
2022-10-10T20:06:02.774Z,2.60
2022-10-10T20:08:29.795Z,3.40
2022-10-10T20:10:56.532Z,2.70
2022-10-10T20:13:23.450Z,3.47
2022-10-10T20:15:50.429Z,4.17
2022-10-10T20:18:19.254Z,3.77
2022-10-10T20:20:50.230Z,2.13
2022-10-10T20:23:20.087Z,3.00
2022-10-10T20:25:47.224Z,3.00
2022-10-10T20:28:15.859Z,4.10
2022-10-10T20:30:45.700Z,3.33
2022-10-10T20:33:12.361Z,3.03
2022-10-10T20:35:38.965Z,3.30
2022-10-10T20:38:05.706Z,2.20
2022-10-10T20:40:32.363Z,2.53
2022-10-10T20:42:59.016Z,3.23
2022-10-10T20:45:25.628Z,2.70
2022-10-10T20:47:52.341Z,3.47
2022-10-10T20:50:19.128Z,2.90
2022-10-10T20:52:45.814Z,4.23
2022-10-10T20:55:12.471Z,2.00
2022-10-10T20:57:39.161Z,3.03
2022-10-10T21:00:06.473Z,3.43
2022-10-10T21:02:34.316Z,3.13
2022-10-10T21:05:01.075Z,3.00
2022-10-10T21:07:30.816Z,4.97
2022-10-10T21:09:59.012Z,3.77
2022-10-10T21:12:25.691Z,4.00
2022-10-10T21:14:52.487Z,3.93
2022-10-10T21:17:19.228Z,4.23
2022-10-10T21:19:45.815Z,3.80
2022-10-10T21:22:12.454Z,3.13
2022-10-10T21:24:39.503Z,3.53
2022-10-10T21:27:06.236Z,3.77
2022-10-10T21:29:32.883Z,3.60
2022-10-10T21:31:59.457Z,4.70
2022-10-10T21:34:26.035Z,3.30
2022-10-10T21:36:53.018Z,3.10
2022-10-10T21:39:19.766Z,4.53
2022-10-10T21:41:46.344Z,2.57
2022-10-10T21:44:13.031Z,2.67
2022-10-10T21:46:39.648Z,3.23
2022-10-10T21:49:09.298Z,2.90
2022-10-10T21:51:41.634Z,3.40
2022-10-10T21:54:09.145Z,5.30
2022-10-10T21:56:36.400Z,2.60
2022-10-10T21:59:03.839Z,5.80
2022-10-10T22:01:32.975Z,2.47
2022-10-10T22:04:01.180Z,2.97
2022-10-10T22:06:28.218Z,2.50
2022-10-10T22:08:57.659Z,2.40
2022-10-10T22:11:26.109Z,2.50
2022-10-10T22:13:52.974Z,2.30
2022-10-10T22:16:20.581Z,2.90
2022-10-10T22:18:47.302Z,2.83
2022-10-10T22:21:16.401Z,2.63
2022-10-10T22:23:44.259Z,4.40
2022-10-10T22:26:13.485Z,2.97
2022-10-10T22:28:40.570Z,2.90
2022-10-10T22:31:08.742Z,2.53
2022-10-10T22:33:35.673Z,3.37
2022-10-10T22:36:03.277Z,2.67
2022-10-10T22:38:30.475Z,2.57
2022-10-10T22:40:57.100Z,2.40
2022-10-10T22:43:26.768Z,2.50
2022-10-10T22:45:54.273Z,3.50
2022-10-10T22:48:20.996Z,2.63
2022-10-10T22:50:47.926Z,2.60
2022-10-10T22:53:14.760Z,1.63
2022-10-10T22:55:41.399Z,2.77
2022-10-10T22:58:08.053Z,2.70
2022-10-10T23:00:34.882Z,4.00
2022-10-10T23:03:01.539Z,2.30
2022-10-10T23:05:28.194Z,2.50
2022-10-10T23:07:54.938Z,1.80
2022-10-10T23:10:21.696Z,2.80
2022-10-10T23:12:48.322Z,2.10
2022-10-10T23:15:15.050Z,2.50
2022-10-10T23:17:41.768Z,2.30
2022-10-10T23:20:10.004Z,2.23
2022-10-10T23:22:36.683Z,1.50
2022-10-10T23:25:03.736Z,2.27
2022-10-10T23:27:30.407Z,2.00
2022-10-10T23:29:57.010Z,2.27
2022-10-10T23:32:26.692Z,2.43
2022-10-10T23:34:53.938Z,2.17
2022-10-10T23:37:20.581Z,2.30
2022-10-10T23:39:47.294Z,2.43
2022-10-10T23:42:14.019Z,2.47
2022-10-10T23:44:40.635Z,2.80
2022-10-10T23:47:07.318Z,2.20
2022-10-10T23:49:34.143Z,2.87
2022-10-10T23:52:00.770Z,2.10
2022-10-10T23:54:27.473Z,2.97
2022-10-10T23:56:54.083Z,2.37
2022-10-10T23:59:20.837Z,2.10
